Time;durP1;ratioP1;P1;durP2;ratioP2;P2;SDS_P1;SDS_P2;PMS_P1;PMS_P2;Temp;Humidity;BMP_temperature;BMP_pressure;BME280_temperature;BME280_humidity;BME280_pressure;Samples;Min_cycle;Max_cycle;Signal;HPM_P1;HPM_P2
2023/08/16 00:00:54;;;;;;;3.60;2.53;;;;;;;20.85;83.36;95904.25;5025322;28;20264;-79
2023/08/16 00:03:19;;;;;;;4.13;3.10;;;;;;;20.95;81.70;95909.13;5023734;28;20633;-79
2023/08/16 00:05:45;;;;;;;2.67;2.47;;;;;;;20.85;82.77;95910.34;5020293;28;20191;-79
2023/08/16 00:08:11;;;;;;;3.00;2.70;;;;;;;20.82;83.09;95912.56;5024558;28;20230;-79
2023/08/16 00:10:36;;;;;;;3.05;2.67;;;;;;;20.74;83.30;95916.22;5024602;28;20205;-78
2023/08/16 00:13:01;;;;;;;4.15;3.28;;;;;;;20.71;83.15;95916.63;5026718;28;20179;-78
2023/08/16 00:15:27;;;;;;;4.60;2.92;;;;;;;20.74;83.20;95918.03;5018559;28;20277;-78
2023/08/16 00:17:53;;;;;;;3.17;2.88;;;;;;;20.72;83.45;95910.31;5062911;28;20218;-77
2023/08/16 00:20:24;;;;;;;2.85;2.63;;;;;;;20.74;82.87;95907.47;5034482;28;20661;-78
2023/08/16 00:22:49;;;;;;;2.95;2.75;;;;;;;20.79;82.65;95895.31;5022991;28;20217;-78
2023/08/16 00:25:15;;;;;;;3.33;2.60;;;;;;;20.74;83.43;95897.72;5021735;28;20822;-79
2023/08/16 00:27:41;;;;;;;2.67;2.47;;;;;;;20.64;84.54;95892.06;5023626;28;20207;-78
2023/08/16 00:30:07;;;;;;;2.75;2.55;;;;;;;20.68;84.15;95892.47;5004192;28;20217;-79
2023/08/16 00:32:32;;;;;;;4.22;3.10;;;;;;;20.68;84.29;95895.13;5029098;28;20178;-77
2023/08/16 00:34:58;;;;;;;4.70;3.25;;;;;;;20.65;84.06;95893.66;4999472;28;20183;-78
2023/08/16 00:37:23;;;;;;;2.80;2.60;;;;;;;20.59;84.22;95886.59;5015399;28;20728;-78
2023/08/16 00:39:49;;;;;;;3.22;2.80;;;;;;;20.58;84.63;95888.41;5000646;28;20273;-77
2023/08/16 00:42:14;;;;;;;3.13;2.65;;;;;;;20.65;84.29;95880.47;5020859;28;20545;-78
2023/08/16 00:44:40;;;;;;;3.55;2.90;;;;;;;20.65;84.03;95883.13;5026361;28;20191;-79
2023/08/16 00:47:05;;;;;;;3.20;2.90;;;;;;;20.64;84.26;95877.03;5030758;28;20206;-78
2023/08/16 00:49:31;;;;;;;3.05;2.85;;;;;;;20.65;84.35;95877.84;5019515;28;20192;-78
2023/08/16 00:51:57;;;;;;;3.20;2.90;;;;;;;20.56;85.48;95869.31;5028918;28;20194;-77
2023/08/16 00:54:22;;;;;;;3.35;3.05;;;;;;;20.68;84.51;95866.91;5016522;28;20896;-79
2023/08/16 00:56:47;;;;;;;3.08;2.75;;;;;;;20.72;84.47;95867.28;5015412;28;20287;-78
2023/08/16 00:59:14;;;;;;;4.53;3.08;;;;;;;20.59;86.01;95865.47;5016596;28;20287;-79
2023/08/16 01:01:39;;;;;;;3.47;3.13;;;;;;;20.55;85.90;95857.13;5019074;28;20232;-78
2023/08/16 01:04:05;;;;;;;3.47;3.17;;;;;;;20.64;85.07;95855.91;5007116;28;20615;-77
2023/08/16 01:06:30;;;;;;;3.83;3.53;;;;;;;20.71;84.45;95850.66;5025743;28;20233;-79
2023/08/16 01:08:55;;;;;;;3.35;3.05;;;;;;;20.75;84.40;95851.03;5026915;28;20579;-79
2023/08/16 01:11:30;;;;;;;3.25;2.95;;;;;;;20.75;84.69;95848.41;5029034;28;20183;-78
2023/08/16 01:14:07;;;;;;;4.20;3.40;;;;;;;20.76;85.02;95852.66;5019941;28;20679;-79
2023/08/16 01:16:36;;;;;;;3.53;3.22;;;;;;;20.73;85.32;95847.81;5026661;28;20265;-79
2023/08/16 01:19:07;;;;;;;4.80;3.50;;;;;;;20.75;84.96;95851.03;5018999;28;20217;-78
2023/08/16 01:21:41;;;;;;;6.07;3.63;;;;;;;20.76;84.90;95842.94;5026278;28;20187;-78
2023/08/16 01:24:32;;;;;;;4.72;3.72;;;;;;;20.71;85.63;95844.56;5024880;28;20214;-78
2023/08/16 01:26:57;;;;;;;3.92;3.50;;;;;;;20.73;85.16;95847.81;5016051;28;20623;-79
2023/08/16 01:29:23;;;;;;;5.68;3.92;;;;;;;20.72;85.63;95843.53;5027033;28;20196;-79
2023/08/16 01:31:48;;;;;;;4.63;4.20;;;;;;;20.69;85.90;95846.59;5005470;28;20597;-78
2023/08/16 01:34:14;;;;;;;4.72;3.42;;;;;;;20.73;85.83;95847.81;5013249;28;20231;-78
2023/08/16 01:36:39;;;;;;;5.40;3.95;;;;;;;20.81;85.18;95845.78;5013716;28;20207;-78
2023/08/16 01:39:05;;;;;;;4.43;3.85;;;;;;;20.82;85.27;95842.13;5017111;28;20190;-79
2023/08/16 01:41:39;;;;;;;3.78;3.47;;;;;;;20.85;85.19;95847.00;5019727;28;20194;-79
2023/08/16 01:44:05;;;;;;;4.25;3.85;;;;;;;20.82;85.59;95841.31;5022165;28;20210;-79
2023/08/16 01:46:32;;;;;;;4.32;3.92;;;;;;;20.85;85.54;95847.00;5019186;28;20433;-78
2023/08/16 01:48:58;;;;;;;4.97;4.00;;;;;;;20.86;85.61;95847.81;5016737;28;20186;-79
2023/08/16 01:51:24;;;;;;;4.40;4.00;;;;;;;20.83;85.42;95840.28;4997982;28;20199;-79
2023/08/16 01:53:51;;;;;;;4.35;3.95;;;;;;;20.83;85.45;95848.19;5020641;28;20187;-78
2023/08/16 01:56:16;;;;;;;6.05;4.00;;;;;;;20.78;85.90;95835.63;5015610;28;20206;-78
2023/08/16 01:58:42;;;;;;;3.92;3.63;;;;;;;20.84;85.55;95837.44;5020211;28;20238;-78
2023/08/16 02:01:07;;;;;;;4.60;4.20;;;;;;;20.85;85.31;95836.44;5025442;28;20186;-79
2023/08/16 02:03:33;;;;;;;5.07;4.38;;;;;;;20.86;85.04;95838.06;5013231;28;20202;-78
2023/08/16 02:05:58;;;;;;;4.28;3.88;;;;;;;20.89;84.96;95828.91;5003501;28;20206;-78
2023/08/16 02:08:23;;;;;;;4.53;4.18;;;;;;;20.93;85.02;95832.75;4999858;28;20242;-78
2023/08/16 02:10:49;;;;;;;4.18;3.80;;;;;;;20.83;84.76;95832.38;5028750;28;20198;-78
2023/08/16 02:13:14;;;;;;;4.65;3.70;;;;;;;20.79;85.39;95828.53;5014104;28;20560;-78
2023/08/16 02:15:39;;;;;;;7.60;4.82;;;;;;;20.77;85.14;95827.91;5015433;28;20187;-79
2023/08/16 02:18:10;;;;;;;4.60;4.20;;;;;;;20.73;85.17;95831.97;5005996;28;20203;-79
2023/08/16 02:20:35;;;;;;;8.00;5.07;;;;;;;20.72;85.15;95827.72;5015459;28;20445;-79
2023/08/16 02:23:01;;;;;;;6.13;4.05;;;;;;;20.63;85.68;95845.56;5023267;28;20190;-78
2023/08/16 02:25:27;;;;;;;4.22;3.92;;;;;;;20.60;85.89;95830.16;5001049;28;20303;-78
2023/08/16 02:27:53;;;;;;;4.60;3.80;;;;;;;20.61;84.99;95835.22;5043094;28;20222;-78
2023/08/16 02:30:18;;;;;;;4.40;4.00;;;;;;;20.49;85.97;95830.75;5014674;28;20668;-78
2023/08/16 02:32:43;;;;;;;5.35;4.30;;;;;;;20.46;86.36;95829.31;5012088;28;20183;-79
2023/08/16 02:35:08;;;;;;;4.35;3.63;;;;;;;20.48;85.79;95824.66;5012920;28;20186;-79
2023/08/16 02:37:34;;;;;;;5.57;3.80;;;;;;;20.41;86.07;95823.84;5017254;28;20206;-78
2023/08/16 02:39:59;;;;;;;4.22;3.83;;;;;;;20.34;86.08;95826.44;5019837;28;20217;-79
2023/08/16 02:42:24;;;;;;;4.28;3.90;;;;;;;20.27;86.56;95822.19;5022093;28;20727;-79
2023/08/16 02:44:50;;;;;;;3.90;3.58;;;;;;;20.31;86.36;95818.13;5028093;28;20183;-79
2023/08/16 02:47:15;;;;;;;5.15;4.70;;;;;;;20.09;87.63;95818.31;4998493;28;20211;-79
2023/08/16 02:49:40;;;;;;;5.20;4.70;;;;;;;20.19;86.86;95814.47;4996360;28;20195;-79
2023/08/16 02:52:06;;;;;;;5.15;4.65;;;;;;;20.18;87.16;95818.91;5012058;28;20183;-79
2023/08/16 02:54:31;;;;;;;5.50;4.28;;;;;;;20.21;86.64;95830.88;5018509;28;20270;-78
2023/08/16 02:56:56;;;;;;;5.88;4.10;;;;;;;20.20;86.79;95821.34;5015477;28;20214;-79
2023/08/16 02:59:22;;;;;;;3.80;3.50;;;;;;;20.13;86.52;95826.59;5018712;28;20273;-78
2023/08/16 03:01:48;;;;;;;4.18;3.78;;;;;;;20.09;86.37;95834.13;5019439;28;20190;-79
2023/08/16 03:04:13;;;;;;;4.28;3.80;;;;;;;20.07;86.51;95830.06;5020494;28;20241;-79
2023/08/16 03:06:38;;;;;;;4.60;3.65;;;;;;;20.16;86.29;95851.78;5025772;28;20692;-79
2023/08/16 03:09:04;;;;;;;4.47;4.07;;;;;;;20.18;86.01;95845.28;5028432;28;20265;-79
2023/08/16 03:11:29;;;;;;;4.30;3.58;;;;;;;20.18;85.97;95855.03;5013527;28;20186;-79
2023/08/16 03:13:54;;;;;;;5.28;4.03;;;;;;;20.19;85.97;95883.81;5027669;28;20220;-79
2023/08/16 03:16:20;;;;;;;4.32;3.90;;;;;;;20.19;85.86;95901.47;5028253;28;20585;-79
2023/08/16 03:18:45;;;;;;;4.80;4.05;;;;;;;20.07;87.35;95924.97;5038500;28;20210;-79
2023/08/16 03:21:10;;;;;;;6.68;3.60;;;;;;;20.09;88.21;95933.50;5020514;28;20183;-79
2023/08/16 03:23:36;;;;;;;5.90;3.65;;;;;;;20.10;88.45;95937.75;5022641;28;20187;-78
2023/08/16 03:26:01;;;;;;;4.40;3.83;;;;;;;20.13;88.45;95942.63;5012272;28;20218;-79
2023/08/16 03:28:26;;;;;;;5.50;3.83;;;;;;;20.21;87.64;95933.72;5027758;28;20229;-78
2023/08/16 03:30:52;;;;;;;4.50;4.10;;;;;;;20.34;86.72;95923.22;5017071;28;20213;-79
2023/08/16 03:33:17;;;;;;;4.63;3.72;;;;;;;20.38;86.17;95919.97;5019589;28;20556;-79
2023/08/16 03:35:43;;;;;;;4.65;3.65;;;;;;;20.40;85.73;95918.97;5015497;28;20179;-79
2023/08/16 03:38:08;;;;;;;4.82;3.47;;;;;;;20.31;85.89;95923.59;5001817;28;20207;-79
2023/08/16 03:40:33;;;;;;;5.63;4.07;;;;;;;20.36;85.30;95919.38;5011964;28;20209;-79
2023/08/16 03:42:59;;;;;;;4.00;3.40;;;;;;;20.34;85.32;95926.69;5012449;28;20194;-79
2023/08/16 03:45:26;;;;;;;5.95;4.00;;;;;;;19.98;87.68;95920.88;5009553;28;20241;-79
2023/08/16 03:47:52;;;;;;;4.22;3.70;;;;;;;20.20;86.78;95921.56;4996020;28;20218;-79
2023/08/16 03:50:17;;;;;;;4.68;3.88;;;;;;;20.21;85.88;95929.25;5007448;28;20186;-79
2023/08/16 03:52:42;;;;;;;6.07;3.55;;;;;;;20.20;85.92;95921.56;5023833;28;20272;-79
2023/08/16 03:55:08;;;;;;;4.70;3.65;;;;;;;20.13;86.28;95925.97;5002072;28;20210;-79
2023/08/16 03:57:33;;;;;;;4.18;3.78;;;;;;;20.11;85.89;95923.56;5037928;28;20207;-78
2023/08/16 03:59:59;;;;;;;5.50;3.75;;;;;;;20.03;86.03;95918.44;5002084;28;20275;-79
2023/08/16 04:02:24;;;;;;;4.85;3.70;;;;;;;20.07;86.12;95922.34;5000014;28;20202;-78
2023/08/16 04:04:53;;;;;;;7.82;5.07;;;;;;;20.04;85.82;95934.06;4999845;28;20198;-78
2023/08/16 04:07:19;;;;;;;4.93;4.00;;;;;;;19.92;86.73;95922.47;5010745;28;20278;-79
2023/08/16 04:09:44;;;;;;;7.38;3.65;;;;;;;20.00;87.10;95921.50;5024986;28;20725;-78
2023/08/16 04:12:09;;;;;;;4.53;4.13;;;;;;;20.01;87.00;95910.75;5006262;28;20194;-79
2023/08/16 04:14:35;;;;;;;4.88;3.90;;;;;;;20.04;86.13;95907.69;5017972;28;20611;-78
2023/08/16 04:17:00;;;;;;;4.65;4.20;;;;;;;20.01;86.13;95899.38;5026903;28;20203;-78
2023/08/16 04:19:25;;;;;;;4.20;3.80;;;;;;;20.03;85.87;95897.34;5021404;28;20218;-78
2023/08/16 04:21:51;;;;;;;5.43;4.45;;;;;;;19.97;86.46;95888.44;5024840;28;20187;-78
2023/08/16 04:24:16;;;;;;;4.22;3.83;;;;;;;19.92;86.60;95876.84;5003833;28;20648;-78
2023/08/16 04:26:43;;;;;;;7.68;4.05;;;;;;;20.01;86.06;95863.28;5009834;28;20269;-79
2023/08/16 04:29:08;;;;;;;4.18;3.88;;;;;;;19.96;85.66;95849.06;5041364;28;20665;-78
2023/08/16 04:31:34;;;;;;;4.20;3.90;;;;;;;20.01;86.43;95833.50;5022222;28;20188;-77
2023/08/16 04:33:59;;;;;;;4.15;3.83;;;;;;;19.99;85.70;95836.31;5028490;28;20191;-79
2023/08/16 04:36:24;;;;;;;3.70;3.40;;;;;;;19.98;86.01;95845.25;5018078;28;20210;-79
2023/08/16 04:38:50;;;;;;;4.22;3.80;;;;;;;20.03;85.89;95834.91;5022462;28;20818;-79
2023/08/16 04:41:15;;;;;;;4.57;4.15;;;;;;;20.09;85.92;95831.47;5023134;28;20244;-79
2023/08/16 04:43:41;;;;;;;4.55;4.07;;;;;;;20.22;85.66;95824.59;5018038;28;20191;-79
2023/08/16 04:46:06;;;;;;;3.95;3.55;;;;;;;20.40;85.28;95826.66;5012346;28;20186;-79
2023/08/16 04:48:31;;;;;;;3.85;3.50;;;;;;;20.64;83.99;95813.69;5028125;28;20175;-78
2023/08/16 04:50:56;;;;;;;4.07;3.78;;;;;;;20.86;83.07;95813.50;5011959;28;20245;-78
2023/08/16 04:53:22;;;;;;;8.00;3.63;;;;;;;21.06;82.65;95808.19;5026268;28;20209;-79
2023/08/16 04:55:47;;;;;;;3.58;3.28;;;;;;;21.39;81.44;95810.78;5022794;28;20649;-78
2023/08/16 04:58:13;;;;;;;5.18;3.60;;;;;;;21.59;79.96;95811.50;5024450;28;20207;-78
2023/08/16 05:00:38;;;;;;;4.15;3.17;;;;;;;21.81;78.92;95817.28;5027793;28;20186;-79
2023/08/16 05:03:03;;;;;;;4.00;3.28;;;;;;;21.87;78.92;95826.22;5029119;28;20182;-80
2023/08/16 05:05:29;;;;;;;4.20;3.85;;;;;;;22.10;77.69;95831.81;5016982;28;20226;-80
2023/08/16 05:07:54;;;;;;;3.58;3.20;;;;;;;22.10;77.11;95839.75;5015092;28;20621;-80
2023/08/16 05:10:19;;;;;;;5.28;3.70;;;;;;;22.36;76.35;95843.25;5016733;28;20523;-80
2023/08/16 05:12:45;;;;;;;5.25;3.40;;;;;;;22.91;73.39;95841.63;5023572;28;20187;-79
2023/08/16 05:15:10;;;;;;;5.00;3.05;;;;;;;23.17;71.57;95848.53;5010547;28;20175;-80
2023/08/16 05:17:35;;;;;;;3.83;3.20;;;;;;;22.96;71.99;95844.44;5024115;28;20237;-80
2023/08/16 05:20:02;;;;;;;3.80;3.25;;;;;;;22.73;73.19;95849.50;5010087;28;20179;-79
2023/08/16 05:22:27;;;;;;;3.60;3.30;;;;;;;22.56;73.90;95850.03;5012863;28;20187;-81
2023/08/16 05:24:53;;;;;;;3.75;3.45;;;;;;;22.36;75.08;95853.84;5016659;28;20198;-79
2023/08/16 05:27:18;;;;;;;4.82;3.50;;;;;;;22.36;74.60;95851.22;5016342;28;20203;-80
2023/08/16 05:29:43;;;;;;;3.90;3.35;;;;;;;22.25;75.66;95853.47;5016409;28;20277;-80
2023/08/16 05:32:09;;;;;;;3.67;3.38;;;;;;;22.11;76.34;95854.59;5032301;28;20172;-79
2023/08/16 05:34:34;;;;;;;4.60;3.50;;;;;;;22.06;76.53;95860.47;5014920;28;20286;-80
2023/08/16 05:37:00;;;;;;;3.17;2.88;;;;;;;22.04;76.38;95864.38;5021798;28;20272;-80
2023/08/16 05:39:25;;;;;;;3.38;3.08;;;;;;;22.01;77.18;95862.16;5018172;28;20186;-80
2023/08/16 05:41:51;;;;;;;4.05;3.53;;;;;;;22.06;77.05;95875.53;5004170;28;20183;-80
2023/08/16 05:44:16;;;;;;;3.17;2.88;;;;;;;22.04;77.43;95873.09;5032357;28;20272;-80
2023/08/16 05:46:41;;;;;;;4.35;3.50;;;;;;;21.97;77.41;95882.09;5014664;28;20222;-80
2023/08/16 05:49:07;;;;;;;3.40;3.10;;;;;;;22.04;77.76;95888.16;5028777;28;20179;-80
2023/08/16 05:51:33;;;;;;;3.35;3.05;;;;;;;22.12;77.33;95889.78;5013530;28;20272;-80
2023/08/16 05:53:58;;;;;;;5.00;3.10;;;;;;;22.09;77.09;95883.09;5009468;28;20316;-78
2023/08/16 05:56:24;;;;;;;7.88;3.20;;;;;;;22.19;76.28;95891.38;5004013;28;20747;-79
2023/08/16 05:58:49;;;;;;;4.68;3.10;;;;;;;22.40;76.24;95890.22;5017371;28;20207;-80
2023/08/16 06:01:14;;;;;;;3.38;3.08;;;;;;;22.52;75.63;95887.72;5008894;28;20265;-78
2023/08/16 06:03:40;;;;;;;4.78;3.20;;;;;;;22.57;75.21;95886.06;5019512;28;20187;-79
2023/08/16 06:06:05;;;;;;;4.13;3.60;;;;;;;22.82;73.81;95893.22;5017527;28;20190;-79
2023/08/16 06:08:30;;;;;;;3.25;2.92;;;;;;;23.12;72.51;95896.03;5010577;28;20187;-79
2023/08/16 06:10:56;;;;;;;4.60;3.30;;;;;;;23.06;73.16;95902.22;5005629;28;20195;-79
2023/08/16 06:13:21;;;;;;;3.85;2.90;;;;;;;23.26;72.09;95899.41;5027604;28;20265;-79
2023/08/16 06:15:47;;;;;;;3.92;3.10;;;;;;;23.34;71.71;95899.13;5008144;28;20186;-78
2023/08/16 06:18:13;;;;;;;3.63;3.28;;;;;;;23.67;70.79;95904.91;5011357;28;20647;-78
2023/08/16 06:20:38;;;;;;;3.30;3.03;;;;;;;23.87;70.44;95909.19;5024558;28;20194;-79
2023/08/16 06:23:04;;;;;;;4.70;3.17;;;;;;;24.00;69.36;95899.22;5015855;28;20191;-78
2023/08/16 06:25:29;;;;;;;3.40;3.03;;;;;;;24.15;68.26;95911.28;5002550;28;20183;-79
2023/08/16 06:27:55;;;;;;;3.78;3.10;;;;;;;24.26;68.42;95915.84;5026981;28;20282;-79
2023/08/16 06:30:20;;;;;;;4.72;3.05;;;;;;;24.54;67.16;95916.09;5029894;28;20183;-83
2023/08/16 06:32:45;;;;;;;3.40;3.10;;;;;;;24.65;66.43;95917.19;5032068;28;20193;-80
2023/08/16 06:35:11;;;;;;;4.30;3.55;;;;;;;25.14;64.90;95902.72;5012488;28;20236;-80
2023/08/16 06:37:38;;;;;;;3.03;2.80;;;;;;;25.68;62.30;95911.38;5025850;28;20696;-79
2023/08/16 06:40:04;;;;;;;5.20;3.33;;;;;;;27.03;57.89;95909.19;5036788;28;20571;-78
2023/08/16 06:42:31;;;;;;;5.15;2.88;;;;;;;28.62;52.62;95923.59;5014232;28;20224;-79
2023/08/16 06:44:56;;;;;;;3.00;2.50;;;;;;;28.94;50.41;95921.81;5022779;28;20194;-79
2023/08/16 06:47:21;;;;;;;2.60;2.40;;;;;;;29.87;48.29;95924.09;5024305;28;20202;-79
2023/08/16 06:49:47;;;;;;;2.38;2.17;;;;;;;30.71;45.46;95923.91;5024151;28;20187;-79
2023/08/16 06:52:12;;;;;;;3.33;2.30;;;;;;;31.47;43.06;95920.47;5021576;28;20654;-78
2023/08/16 06:54:37;;;;;;;3.00;2.45;;;;;;;31.76;42.67;95923.38;5021855;28;20265;-78
2023/08/16 06:57:03;;;;;;;2.95;2.55;;;;;;;31.21;42.77;95919.69;5010924;28;20218;-78
2023/08/16 06:59:29;;;;;;;2.17;2.05;;;;;;;31.78;42.25;95921.22;5011523;28;20690;-78
2023/08/16 07:01:55;;;;;;;3.33;2.10;;;;;;;32.40;40.14;95922.63;5020019;28;20190;-78
2023/08/16 07:04:20;;;;;;;3.20;2.22;;;;;;;32.26;40.12;95916.25;5013149;28;20231;-78
2023/08/16 07:06:45;;;;;;;3.70;2.30;;;;;;;31.33;41.20;95919.41;5016055;28;20211;-78
2023/08/16 07:09:11;;;;;;;4.40;2.20;;;;;;;31.98;41.27;95916.88;5003409;28;20236;-78
2023/08/16 07:11:36;;;;;;;3.25;2.10;;;;;;;31.00;41.95;95909.97;5012062;28;20621;-78
2023/08/16 07:14:01;;;;;;;3.75;2.15;;;;;;;30.02;44.85;95913.44;5026256;28;20178;-77
2023/08/16 07:16:27;;;;;;;4.25;2.03;;;;;;;31.09;41.07;95913.75;5003082;28;20221;-76
2023/08/16 07:18:52;;;;;;;2.17;1.70;;;;;;;31.00;41.99;95913.47;4996128;28;20207;-79
2023/08/16 07:21:17;;;;;;;2.13;1.92;;;;;;;30.21;42.88;95913.00;5013845;28;20194;-77
2023/08/16 07:23:44;;;;;;;3.13;1.83;;;;;;;29.15;44.66;95903.25;5012372;28;20187;-78
2023/08/16 07:26:10;;;;;;;2.53;2.33;;;;;;;28.81;46.21;95916.88;5018083;28;20190;-77
2023/08/16 07:28:35;;;;;;;2.63;2.17;;;;;;;27.94;48.54;95907.09;5007209;28;20183;-78
2023/08/16 07:31:00;;;;;;;2.20;2.00;;;;;;;27.51;50.02;95907.81;5022887;28;20182;-83
2023/08/16 07:33:25;;;;;;;3.95;2.20;;;;;;;27.43;50.26;95910.88;5011822;28;20601;-81
2023/08/16 07:35:51;;;;;;;3.38;2.28;;;;;;;27.02;51.49;95910.22;5002508;28;20191;-82
2023/08/16 07:38:16;;;;;;;4.10;2.63;;;;;;;26.96;51.80;95913.88;5016791;28;20232;-82
2023/08/16 07:40:47;;;;;;;2.85;2.40;;;;;;;27.09;52.58;95911.72;5006077;28;20190;-80
2023/08/16 07:43:13;;;;;;;2.80;2.60;;;;;;;27.18;52.58;95908.63;5010213;28;20556;-81
2023/08/16 07:45:38;;;;;;;2.83;2.63;;;;;;;26.99;53.13;95911.53;5023461;28;20183;-84
2023/08/16 07:48:03;;;;;;;3.47;3.00;;;;;;;27.13;52.56;95916.56;5012209;28;20947;-86
2023/08/16 07:50:29;;;;;;;3.55;2.85;;;;;;;26.64;54.51;95913.59;5027222;28;20236;-88
2023/08/16 07:52:54;;;;;;;5.88;3.10;;;;;;;26.51;54.89;95910.19;5004036;28;20192;-85
2023/08/16 07:55:30;;;;;;;5.32;3.10;;;;;;;26.82;54.12;95927.50;5024596;28;20230;-86
2023/08/16 07:57:58;;;;;;;4.53;3.08;;;;;;;26.76;54.56;95920.44;5031782;28;20205;-88
2023/08/16 08:00:23;;;;;;;3.10;2.67;;;;;;;27.16;53.80;95922.22;5014018;28;20321;-80
2023/08/16 08:03:21;;;;;;;;;;;;;;;;;;;;;
2023/08/16 08:10:18;;;;;;;4.18;3.33;;;;;;;26.79;55.68;95927.19;4885722;29;20188;-82
2023/08/16 08:12:46;;;;;;;4.95;3.83;;;;;;;26.74;55.17;95940.41;4873076;29;20214;-82
2023/08/16 08:15:13;;;;;;;4.88;3.78;;;;;;;26.77;55.75;95926.63;4892082;29;20233;-81
2023/08/16 08:17:38;;;;;;;3.88;3.58;;;;;;;27.01;55.80;95928.06;4872747;29;20220;-82
2023/08/16 08:20:04;;;;;;;4.05;3.60;;;;;;;27.27;55.07;95929.31;4872679;29;20317;-83
2023/08/16 08:22:30;;;;;;;4.38;3.13;;;;;;;27.36;55.45;95933.19;4874482;29;20261;-82
2023/08/16 08:24:55;;;;;;;5.00;3.97;;;;;;;27.40;54.47;95927.38;4852589;29;20874;-82
2023/08/16 08:27:20;;;;;;;5.43;4.10;;;;;;;27.62;53.84;95922.91;4876620;29;20227;-82
2023/08/16 08:29:46;;;;;;;4.18;3.78;;;;;;;27.46;54.54;95935.19;4859971;29;20195;-83
2023/08/16 08:32:11;;;;;;;4.18;3.78;;;;;;;27.47;54.58;95926.13;4864577;29;20195;-85
2023/08/16 08:34:38;;;;;;;5.15;4.50;;;;;;;27.20;55.55;95928.66;4879394;29;20191;-80
2023/08/16 08:37:06;;;;;;;6.75;4.20;;;;;;;26.86;56.49;95927.84;4892520;29;20223;-82
2023/08/16 08:39:34;;;;;;;7.93;4.30;;;;;;;27.28;56.30;95917.59;4859263;29;20231;-82
2023/08/16 08:42:11;;;;;;;5.32;4.65;;;;;;;27.32;55.62;95926.75;4881159;29;20202;-83
2023/08/16 08:54:58;;;;;;;7.95;4.43;;;;;;;27.60;55.45;95923.16;4952467;28;20189;-82
2023/08/16 08:58:25;;;;;;;5.50;4.40;;;;;;;28.15;55.43;95924.16;4938676;29;20281;-82
2023/08/16 09:07:54;;;;;;;6.45;4.72;;;;;;;28.11;53.94;95921.19;4901935;29;20213;-84
2023/08/16 09:17:05;;;;;;;5.80;5.20;;;;;;;28.45;53.51;95924.53;4899028;29;20287;-84
2023/08/16 09:20:05;;;;;;;5.55;5.05;;;;;;;28.53;53.15;95923.25;4890148;29;20227;-82
2023/08/16 09:34:55;;;;;;;5.93;4.68;;;;;;;28.99;51.77;95921.06;5047629;28;20721;-83
2023/08/16 09:37:21;;;;;;;6.43;4.60;;;;;;;28.92;51.61;95921.28;5032761;28;20202;-84
2023/08/16 09:39:56;;;;;;;5.32;4.78;;;;;;;29.20;50.53;95908.66;5028790;28;20213;-83
2023/08/16 09:42:30;;;;;;;6.45;4.93;;;;;;;29.48;50.69;95910.19;5042274;28;20186;-82
2023/08/16 09:44:55;;;;;;;7.60;5.00;;;;;;;29.01;50.80;95916.28;5031091;28;20189;-82
2023/08/16 09:47:22;;;;;;;5.00;4.43;;;;;;;28.48;53.90;95916.00;5039716;28;20202;-83
2023/08/16 09:49:49;;;;;;;7.85;5.40;;;;;;;28.09;53.29;95903.78;5040104;28;20768;-82
2023/08/16 09:52:15;;;;;;;9.32;5.70;;;;;;;28.06;54.44;95910.44;5051488;28;20180;-83
2023/08/16 09:54:40;;;;;;;7.47;5.25;;;;;;;28.03;53.36;95905.59;5035288;28;20189;-83
2023/08/16 09:57:06;;;;;;;5.75;4.82;;;;;;;28.60;52.44;95909.69;5041618;28;20202;-83
2023/08/16 09:59:31;;;;;;;6.55;5.78;;;;;;;28.89;50.60;95912.91;5037248;28;20232;-79
2023/08/16 10:01:58;;;;;;;8.30;5.55;;;;;;;28.97;51.13;95905.25;5044620;28;20201;-83
2023/08/16 10:04:24;;;;;;;6.82;4.82;;;;;;;29.53;50.71;95912.94;5029272;28;20197;-83
2023/08/16 10:06:50;;;;;;;7.88;5.57;;;;;;;29.31;51.71;95899.63;5051000;28;20209;-83
2023/08/16 10:09:15;;;;;;;7.78;5.15;;;;;;;30.02;49.16;95905.41;5037334;28;20209;-84
2023/08/16 10:11:42;;;;;;;6.82;5.03;;;;;;;30.30;48.56;95906.06;5025455;28;20636;-87
2023/08/16 10:14:08;;;;;;;8.50;5.45;;;;;;;30.03;49.99;95906.22;5035600;28;20193;-87
2023/08/16 10:16:37;;;;;;;6.50;5.15;;;;;;;30.27;48.38;95907.41;5029856;28;20202;-83
2023/08/16 10:19:03;;;;;;;5.88;5.28;;;;;;;30.78;46.58;95901.41;5041416;28;20220;-82
2023/08/16 10:21:31;;;;;;;6.57;5.22;;;;;;;30.60;47.78;95898.13;5050538;28;20210;-82
2023/08/16 10:24:49;;;;;;;7.82;5.38;;;;;;;30.78;46.42;95901.41;5046582;28;20189;-82
2023/08/16 10:28:01;;;;;;;5.65;4.95;;;;;;;30.62;46.98;95898.66;5044675;28;20711;-83
2023/08/16 10:30:34;;;;;;;6.65;4.88;;;;;;;30.75;46.27;95886.66;4979409;28;20208;-81
2023/08/16 10:33:06;;;;;;;8.32;4.95;;;;;;;31.05;43.64;95879.69;4954182;28;20733;-84
2023/08/16 10:35:47;;;;;;;6.55;4.47;;;;;;;30.80;45.02;95886.66;4971134;28;20227;-83
2023/08/16 10:38:15;;;;;;;8.02;5.13;;;;;;;30.37;45.15;95882.53;4973782;28;20220;-84
2023/08/16 10:40:40;;;;;;;5.22;4.70;;;;;;;30.42;45.39;95885.22;4967853;28;20219;-83
2023/08/16 10:43:07;;;;;;;5.60;4.65;;;;;;;30.59;46.29;95882.31;4973394;28;20188;-83
2023/08/16 10:45:35;;;;;;;6.97;4.93;;;;;;;30.43;46.06;95878.81;4973383;28;20184;-84
2023/08/16 10:48:18;;;;;;;6.45;5.32;;;;;;;30.51;46.68;95886.31;4971518;28;20274;-83
2023/08/16 10:50:52;;;;;;;5.80;4.68;;;;;;;30.35;46.46;95887.34;4955046;28;20188;-84
2023/08/16 10:53:23;;;;;;;5.53;5.03;;;;;;;30.42;45.88;95882.56;4955088;28;20192;-83
2023/08/16 10:55:53;;;;;;;7.30;4.90;;;;;;;30.31;46.20;95880.94;4972642;28;20191;-84
2023/08/16 10:58:24;;;;;;;8.45;5.07;;;;;;;30.39;46.26;95877.72;4972724;28;20204;-86
2023/08/16 11:01:00;;;;;;;6.53;5.07;;;;;;;30.35;46.85;95861.38;4957082;28;20290;-87
2023/08/16 11:03:35;;;;;;;6.43;5.18;;;;;;;30.79;44.06;95862.78;4968711;28;20290;-85
2023/08/16 11:06:07;;;;;;;6.38;4.78;;;;;;;30.33;45.65;95866.19;4960094;28;20191;-81
2023/08/16 11:08:33;;;;;;;7.30;5.15;;;;;;;30.29;46.20;95866.97;5035999;28;20206;-82
2023/08/16 11:11:01;;;;;;;6.97;5.50;;;;;;;30.58;43.91;95865.44;5035043;28;20197;-82
2023/08/16 11:13:28;;;;;;;6.47;5.78;;;;;;;30.50;44.82;95863.28;5053592;28;20191;-82
2023/08/16 11:15:53;;;;;;;8.20;5.60;;;;;;;30.39;45.33;95861.63;5033241;28;20196;-82
2023/08/16 11:18:32;;;;;;;7.22;4.95;;;;;;;30.70;44.48;95863.31;5036042;28;20682;-83
2023/08/16 11:21:01;;;;;;;6.72;5.40;;;;;;;30.43;45.18;95865.41;5046323;28;20198;-84
2023/08/16 11:23:37;;;;;;;6.70;5.18;;;;;;;30.95;45.34;95861.72;5034318;28;20190;-83
2023/08/16 11:26:04;;;;;;;6.32;5.60;;;;;;;30.88;44.70;95869.22;5038501;28;20181;-85
2023/08/16 11:28:33;;;;;;;5.68;5.18;;;;;;;31.08;44.37;95868.41;5044404;28;20197;-83
2023/08/16 11:30:59;;;;;;;9.70;5.63;;;;;;;30.91;44.50;95861.44;5039236;28;20201;-84
2023/08/16 11:33:32;;;;;;;6.05;5.45;;;;;;;31.16;44.99;95871.34;5045828;28;20188;-84
2023/08/16 11:35:59;;;;;;;6.32;5.70;;;;;;;31.49;44.43;95866.53;5043516;28;20174;-84
2023/08/16 11:38:24;;;;;;;6.15;5.63;;;;;;;31.52;45.28;95857.91;5042126;28;20228;-83
2023/08/16 11:40:49;;;;;;;6.70;6.00;;;;;;;31.08;45.51;95857.69;5044866;28;20185;-84
2023/08/16 11:43:16;;;;;;;5.93;5.30;;;;;;;31.33;44.93;95856.88;5037811;28;20189;-84
2023/08/16 11:45:41;;;;;;;6.97;6.10;;;;;;;31.62;44.55;95851.72;5058584;28;20193;-84
2023/08/16 11:48:06;;;;;;;7.22;6.35;;;;;;;31.41;44.33;95848.28;5033887;28;20194;-84
2023/08/16 11:50:34;;;;;;;5.95;5.28;;;;;;;31.36;44.52;95842.91;5042610;28;20182;-85
2023/08/16 11:53:01;;;;;;;7.45;6.55;;;;;;;31.09;44.47;95837.84;5031124;28;20186;-85
2023/08/16 11:55:29;;;;;;;7.72;6.10;;;;;;;30.55;45.48;95838.34;5036754;28;20232;-84
2023/08/16 11:58:01;;;;;;;8.75;5.97;;;;;;;30.73;45.73;95835.16;5034169;28;20284;-84
2023/08/16 12:00:29;;;;;;;7.97;6.10;;;;;;;30.61;45.87;95839.97;5046676;28;20377;-80
2023/08/16 12:02:55;;;;;;;6.35;5.70;;;;;;;30.81;45.31;95831.16;5051531;28;20538;-83
2023/08/16 12:05:21;;;;;;;6.60;5.90;;;;;;;31.21;44.37;95825.78;5037720;28;20213;-82
2023/08/16 12:07:54;;;;;;;6.45;5.80;;;;;;;31.17;45.33;95831.94;5040921;28;20296;-80
2023/08/16 12:10:23;;;;;;;8.65;5.60;;;;;;;30.98;44.32;95829.81;5050414;28;20773;-82
2023/08/16 12:12:52;;;;;;;6.70;6.07;;;;;;;30.99;45.93;95833.28;5042621;28;20216;-81
2023/08/16 12:15:18;;;;;;;6.15;5.65;;;;;;;30.98;45.45;95826.31;5033491;28;20181;-79